createdAt,value
2023-05-22T00:01:51.889Z,9.15
2023-05-22T00:04:22.052Z,8.20
2023-05-22T00:06:49.485Z,8.55
2023-05-22T00:09:16.262Z,8.77
2023-05-22T00:11:43.217Z,9.18
2023-05-22T00:14:09.912Z,8.93
2023-05-22T00:16:36.661Z,8.52
2023-05-22T00:19:03.854Z,8.43
2023-05-22T00:21:34.667Z,8.60
2023-05-22T00:24:02.128Z,8.50
2023-05-22T00:26:28.881Z,8.77
2023-05-22T00:28:55.720Z,8.45
2023-05-22T00:31:22.936Z,7.97
2023-05-22T00:33:49.972Z,8.70
2023-05-22T00:36:22.206Z,7.75
2023-05-22T00:38:48.966Z,8.40
2023-05-22T00:41:15.838Z,8.55
2023-05-22T00:43:42.665Z,7.68
2023-05-22T00:46:09.975Z,8.32
2023-05-22T00:48:36.746Z,8.27
2023-05-22T00:51:03.991Z,8.40
2023-05-22T00:53:31.468Z,7.80
2023-05-22T00:55:59.766Z,7.82
2023-05-22T00:58:27.509Z,8.30
2023-05-22T01:00:56.859Z,7.93
2023-05-22T01:03:26.975Z,7.80
2023-05-22T01:05:54.312Z,7.38
2023-05-22T01:08:21.488Z,8.23
2023-05-22T01:10:55.980Z,7.75
2023-05-22T01:13:42.847Z,7.93
2023-05-22T01:16:30.109Z,7.60
2023-05-22T01:19:16.063Z,7.50
2023-05-22T01:22:04.257Z,7.78
2023-05-22T01:25:17.089Z,7.43
2023-05-22T01:28:02.816Z,8.20
2023-05-22T01:30:53.396Z,7.72
2023-05-22T01:33:26.104Z,7.60
2023-05-22T01:35:57.516Z,7.72
2023-05-22T01:38:25.448Z,7.38
2023-05-22T01:40:53.894Z,7.35
2023-05-22T01:43:20.844Z,7.72
2023-05-22T01:45:47.743Z,7.90
2023-05-22T01:48:14.529Z,7.68
2023-05-22T01:50:41.896Z,7.22
2023-05-22T01:53:24.763Z,7.47
2023-05-22T01:56:01.762Z,7.53
2023-05-22T01:58:32.907Z,7.50
2023-05-22T02:01:01.456Z,7.60
2023-05-22T02:03:32.287Z,7.32
2023-05-22T02:06:01.886Z,7.50
2023-05-22T02:08:29.862Z,7.35
2023-05-22T02:10:57.828Z,7.38
2023-05-22T02:13:24.791Z,7.50
2023-05-22T02:15:52.518Z,7.57
2023-05-22T02:18:19.314Z,7.20
2023-05-22T02:20:46.589Z,7.57
2023-05-22T02:23:13.792Z,7.57
2023-05-22T02:25:40.770Z,7.55
2023-05-22T02:28:07.502Z,7.45
2023-05-22T02:30:34.290Z,7.20
2023-05-22T02:33:01.154Z,7.28
2023-05-22T02:35:29.658Z,7.13
2023-05-22T02:37:56.405Z,8.23
2023-05-22T02:40:23.371Z,6.68
2023-05-22T02:42:50.283Z,6.60
2023-05-22T02:45:17.888Z,7.32
2023-05-22T02:47:44.941Z,7.25
2023-05-22T02:50:12.012Z,7.53
2023-05-22T02:52:41.900Z,7.95
2023-05-22T02:55:10.479Z,7.25
2023-05-22T02:57:37.321Z,6.90
2023-05-22T03:00:07.047Z,7.25
2023-05-22T03:02:34.826Z,7.70
2023-05-22T03:05:01.589Z,7.75
2023-05-22T03:07:32.074Z,6.80
2023-05-22T03:09:58.700Z,7.07
2023-05-22T03:12:25.578Z,7.65
2023-05-22T03:14:52.250Z,7.28
2023-05-22T03:17:19.175Z,6.70
2023-05-22T03:19:46.448Z,7.03
2023-05-22T03:22:13.275Z,6.72
2023-05-22T03:24:40.270Z,7.00
2023-05-22T03:27:07.667Z,7.32
2023-05-22T03:29:40.215Z,7.10
2023-05-22T03:32:07.265Z,6.72
2023-05-22T03:34:36.298Z,7.05
2023-05-22T03:37:05.241Z,7.10
2023-05-22T03:39:32.358Z,6.93
2023-05-22T03:42:05.481Z,7.03
2023-05-22T03:44:32.413Z,6.75
2023-05-22T03:47:00.800Z,6.53
2023-05-22T03:49:27.492Z,6.50
2023-05-22T03:51:54.231Z,6.28
2023-05-22T03:54:21.403Z,6.10
2023-05-22T03:56:48.200Z,6.80
2023-05-22T03:59:14.972Z,5.97
2023-05-22T04:01:41.790Z,6.28
2023-05-22T04:04:09.621Z,6.68
2023-05-22T04:06:43.054Z,6.63
2023-05-22T04:09:13.586Z,6.38
2023-05-22T04:11:40.292Z,6.13
2023-05-22T04:14:07.053Z,6.10
2023-05-22T04:16:34.160Z,6.35
2023-05-22T04:19:03.247Z,6.05
2023-05-22T04:21:35.949Z,5.97
2023-05-22T04:24:07.161Z,5.95
2023-05-22T04:26:34.234Z,6.03
2023-05-22T04:29:01.246Z,5.97
2023-05-22T04:31:28.496Z,5.82
2023-05-22T04:33:55.947Z,5.93
2023-05-22T04:36:26.121Z,5.88
2023-05-22T04:38:54.123Z,6.03
2023-05-22T04:41:26.630Z,6.18
2023-05-22T04:43:54.591Z,6.10
2023-05-22T04:46:21.365Z,5.82
2023-05-22T04:48:48.373Z,5.68
2023-05-22T04:51:15.957Z,5.85
2023-05-22T04:53:43.009Z,6.32
2023-05-22T04:56:09.989Z,5.82
2023-05-22T04:58:38.398Z,5.57
2023-05-22T05:01:06.272Z,5.80
2023-05-22T05:03:33.995Z,5.60
2023-05-22T05:06:00.744Z,5.10
2023-05-22T05:08:27.608Z,5.72
2023-05-22T05:10:54.288Z,5.55
2023-05-22T05:13:23.544Z,5.65
2023-05-22T05:15:50.655Z,5.38
2023-05-22T05:18:17.613Z,5.40
2023-05-22T05:20:44.469Z,5.30
2023-05-22T05:23:11.396Z,5.15
2023-05-22T05:25:38.759Z,5.25
2023-05-22T05:28:11.667Z,4.88
2023-05-22T05:30:40.828Z,5.32
2023-05-22T05:33:26.598Z,5.45
2023-05-22T05:36:05.682Z,4.68
2023-05-22T05:38:33.750Z,5.18
2023-05-22T05:41:00.653Z,5.00
2023-05-22T05:43:28.380Z,5.25
2023-05-22T05:46:00.619Z,5.15
2023-05-22T05:48:27.491Z,5.47
2023-05-22T05:50:54.419Z,5.35
2023-05-22T05:53:22.438Z,5.18
2023-05-22T05:55:54.914Z,5.30
2023-05-22T05:58:21.820Z,5.05
2023-05-22T06:01:11.868Z,4.97
2023-05-22T06:03:40.194Z,4.80
2023-05-22T06:06:14.122Z,4.70
2023-05-22T06:08:59.724Z,5.25
2023-05-22T06:11:31.499Z,4.68
2023-05-22T06:13:59.483Z,4.97
2023-05-22T06:16:28.203Z,4.45
2023-05-22T06:18:57.219Z,4.30
2023-05-22T06:21:24.568Z,4.45
2023-05-22T06:23:51.692Z,4.50
2023-05-22T06:26:23.541Z,4.80
2023-05-22T06:28:53.556Z,4.72
2023-05-22T06:31:22.910Z,4.50
2023-05-22T06:33:52.010Z,4.32
2023-05-22T06:36:23.036Z,4.60
2023-05-22T06:38:51.935Z,4.05
2023-05-22T06:41:38.556Z,4.45
2023-05-22T06:44:07.294Z,4.50
2023-05-22T06:46:38.525Z,4.68
2023-05-22T06:49:06.350Z,4.10
2023-05-22T06:51:43.245Z,4.05
2023-05-22T06:54:13.892Z,4.00
2023-05-22T06:56:43.319Z,4.00
2023-05-22T06:59:14.988Z,4.22
2023-05-22T07:02:01.759Z,3.90
2023-05-22T07:05:08.442Z,3.92
2023-05-22T07:07:56.911Z,3.70
2023-05-22T07:10:25.052Z,3.60
2023-05-22T07:12:51.896Z,3.78
2023-05-22T07:15:21.995Z,3.88
2023-05-22T07:17:53.878Z,3.90
2023-05-22T07:20:20.922Z,3.72
2023-05-22T07:22:59.505Z,3.25
2023-05-22T07:25:26.623Z,3.38
2023-05-22T07:27:53.482Z,3.25
2023-05-22T07:30:22.513Z,3.90
2023-05-22T07:32:49.527Z,3.55
2023-05-22T07:35:16.603Z,3.10
2023-05-22T07:37:44.060Z,3.35
2023-05-22T07:40:11.294Z,3.50
2023-05-22T07:42:38.462Z,3.72
2023-05-22T07:45:07.540Z,3.63
2023-05-22T07:47:34.322Z,3.30
2023-05-22T07:50:04.425Z,3.55
2023-05-22T07:52:33.410Z,3.15
2023-05-22T07:55:03.272Z,3.40
2023-05-22T07:57:30.798Z,3.58
2023-05-22T08:00:09.449Z,3.10
2023-05-22T08:02:40.772Z,3.35
2023-05-22T08:05:08.917Z,2.97
2023-05-22T08:07:36.408Z,3.35
2023-05-22T08:10:08.248Z,3.28
2023-05-22T08:12:35.427Z,3.30
2023-05-22T08:15:02.156Z,3.38
2023-05-22T08:17:28.921Z,3.15
2023-05-22T08:19:55.922Z,3.30
2023-05-22T08:22:22.715Z,3.17
2023-05-22T08:24:49.614Z,2.90
2023-05-22T08:27:16.339Z,3.10
2023-05-22T08:29:43.072Z,3.13
2023-05-22T08:32:09.784Z,3.25
2023-05-22T08:34:36.567Z,3.25
2023-05-22T08:37:04.651Z,3.17
2023-05-22T08:39:33.202Z,3.03
2023-05-22T08:41:59.928Z,3.47
2023-05-22T08:44:26.694Z,3.40
2023-05-22T08:46:56.549Z,3.13
2023-05-22T08:49:24.479Z,2.67
2023-05-22T08:51:56.477Z,3.22
2023-05-22T08:54:26.392Z,3.22
2023-05-22T08:56:57.216Z,3.33
2023-05-22T08:59:24.877Z,2.85
2023-05-22T09:01:53.449Z,3.05
2023-05-22T09:04:23.804Z,3.20
2023-05-22T09:06:51.105Z,3.15
2023-05-22T09:09:18.148Z,3.40
2023-05-22T09:11:44.904Z,3.10
2023-05-22T09:14:12.328Z,3.03
2023-05-22T09:16:51.788Z,3.30
2023-05-22T09:19:19.117Z,2.78
2023-05-22T09:21:46.313Z,3.40
2023-05-22T09:24:13.492Z,3.15
2023-05-22T09:26:40.674Z,3.00
2023-05-22T09:29:08.084Z,2.60
2023-05-22T09:31:42.763Z,3.00
2023-05-22T09:34:11.219Z,3.15
2023-05-22T09:36:39.438Z,2.88
2023-05-22T09:39:06.492Z,3.15
2023-05-22T09:41:39.595Z,2.70
2023-05-22T09:44:14.028Z,2.97
2023-05-22T09:46:42.894Z,3.08
2023-05-22T09:49:09.816Z,2.80
2023-05-22T09:51:43.923Z,2.50
2023-05-22T09:54:12.315Z,2.67
2023-05-22T09:56:44.289Z,2.60
2023-05-22T09:59:13.927Z,2.83
2023-05-22T10:01:42.589Z,3.00
2023-05-22T10:04:15.967Z,2.80
2023-05-22T10:06:47.308Z,2.70
2023-05-22T10:09:19.692Z,2.70
2023-05-22T10:11:47.440Z,3.08
2023-05-22T10:14:15.899Z,2.55
2023-05-22T10:16:44.951Z,2.78
2023-05-22T10:19:13.062Z,2.95
2023-05-22T10:21:41.639Z,2.70
2023-05-22T10:24:09.032Z,2.88
2023-05-22T10:26:36.272Z,2.63
2023-05-22T10:29:10.897Z,2.50
2023-05-22T10:31:56.446Z,2.80
2023-05-22T10:34:47.319Z,3.10
2023-05-22T10:37:41.969Z,2.72
2023-05-22T10:40:14.866Z,2.75
2023-05-22T10:42:41.737Z,2.55
2023-05-22T10:45:09.093Z,2.63
2023-05-22T10:47:36.605Z,2.90
2023-05-22T10:50:11.210Z,3.20
2023-05-22T10:52:39.966Z,2.70
2023-05-22T10:55:09.014Z,2.58
2023-05-22T10:57:39.425Z,3.15
2023-05-22T11:00:15.632Z,2.65
2023-05-22T11:02:46.104Z,2.33
2023-05-22T11:07:52.531Z,2.67
2023-05-22T11:14:58.732Z,2.65
2023-05-22T11:18:12.065Z,2.47
2023-05-22T11:21:08.931Z,2.50
2023-05-22T11:23:50.445Z,2.30
2023-05-22T11:26:28.291Z,2.45
2023-05-22T11:28:56.642Z,2.70
2023-05-22T11:31:23.942Z,2.67
2023-05-22T11:33:53.735Z,2.40
2023-05-22T11:36:20.928Z,2.83
2023-05-22T11:38:47.600Z,2.65
2023-05-22T11:41:15.239Z,3.03
2023-05-22T11:43:45.123Z,2.90
2023-05-22T11:46:12.472Z,2.97
2023-05-22T11:48:41.744Z,2.53
2023-05-22T11:51:10.266Z,2.80
2023-05-22T11:53:36.991Z,2.70
2023-05-22T11:56:05.679Z,2.90
2023-05-22T11:58:33.185Z,3.10
2023-05-22T12:01:02.513Z,2.67
2023-05-22T12:03:30.580Z,2.75
2023-05-22T12:05:57.851Z,2.72
2023-05-22T12:08:27.677Z,2.92
2023-05-22T12:10:57.438Z,2.67
2023-05-22T12:13:31.832Z,2.95
2023-05-22T12:16:00.946Z,3.00
2023-05-22T12:18:35.545Z,2.75
2023-05-22T12:21:05.944Z,3.10
2023-05-22T12:23:32.549Z,2.80
2023-05-22T12:26:01.103Z,2.78
2023-05-22T12:28:28.057Z,3.10
2023-05-22T12:30:55.838Z,2.63
2023-05-22T12:33:29.627Z,2.92
2023-05-22T12:35:58.616Z,3.13
2023-05-22T12:38:31.699Z,2.63
2023-05-22T12:41:00.215Z,2.97
2023-05-22T12:43:27.248Z,3.25
2023-05-22T12:45:54.027Z,3.15
2023-05-22T12:48:20.740Z,3.10
2023-05-22T12:50:47.437Z,3.22
2023-05-22T12:53:14.339Z,2.67
2023-05-22T12:55:41.301Z,2.90
2023-05-22T12:58:08.065Z,2.83
2023-05-22T13:00:35.646Z,3.00
2023-05-22T13:03:03.230Z,2.72
2023-05-22T13:05:30.070Z,2.92
2023-05-22T13:07:57.021Z,2.80
2023-05-22T13:10:23.860Z,2.70
2023-05-22T13:12:51.667Z,3.10
2023-05-22T13:15:18.786Z,2.78
2023-05-22T13:17:45.884Z,3.35
2023-05-22T13:20:13.482Z,2.88
2023-05-22T13:22:41.722Z,2.80
2023-05-22T13:25:08.825Z,2.92
2023-05-22T13:27:35.772Z,3.20
2023-05-22T13:30:02.463Z,2.88
2023-05-22T13:32:29.198Z,2.92
2023-05-22T13:34:55.872Z,3.00
2023-05-22T13:37:22.756Z,3.30
2023-05-22T13:39:49.421Z,2.90
2023-05-22T13:42:17.553Z,3.10
2023-05-22T13:44:44.336Z,3.08
2023-05-22T13:47:11.199Z,2.97
2023-05-22T13:49:37.956Z,2.75
2023-05-22T13:52:05.117Z,3.00
2023-05-22T13:54:31.837Z,3.08
2023-05-22T13:56:59.932Z,2.95
2023-05-22T13:59:27.189Z,3.13
2023-05-22T14:01:54.032Z,3.05
2023-05-22T14:04:20.835Z,2.97
2023-05-22T14:06:47.569Z,2.70
2023-05-22T14:09:17.020Z,3.30
2023-05-22T14:11:43.898Z,3.20
2023-05-22T14:14:10.938Z,2.97
2023-05-22T14:16:37.781Z,3.05
2023-05-22T14:19:04.601Z,3.05
2023-05-22T14:21:31.423Z,2.95
2023-05-22T14:23:58.079Z,3.03
2023-05-22T14:26:24.826Z,2.90
2023-05-22T14:28:51.598Z,3.03
2023-05-22T14:31:18.392Z,3.17
2023-05-22T14:33:45.319Z,3.20
2023-05-22T14:36:12.114Z,3.03
2023-05-22T14:38:38.847Z,3.00
2023-05-22T14:41:05.671Z,3.03
2023-05-22T14:43:33.497Z,3.08
2023-05-22T14:46:00.442Z,3.05
2023-05-22T14:48:29.259Z,3.25
2023-05-22T14:50:56.217Z,2.88
2023-05-22T14:53:23.377Z,3.05
2023-05-22T14:55:50.338Z,2.95
2023-05-22T14:58:17.075Z,3.00
2023-05-22T15:00:47.262Z,2.95
2023-05-22T15:03:14.082Z,3.22
2023-05-22T15:05:41.055Z,3.10
2023-05-22T15:08:07.986Z,3.13
2023-05-22T15:10:34.819Z,3.15
2023-05-22T15:13:01.596Z,2.78
2023-05-22T15:15:28.498Z,2.92
2023-05-22T15:17:56.325Z,2.97
2023-05-22T15:20:23.157Z,3.15
2023-05-22T15:22:49.883Z,3.20
2023-05-22T15:25:16.646Z,2.92
2023-05-22T15:27:43.601Z,2.90
2023-05-22T15:30:12.064Z,2.78
2023-05-22T15:32:39.265Z,3.33
2023-05-22T15:35:10.575Z,2.88
2023-05-22T15:37:37.378Z,2.97
2023-05-22T15:40:04.638Z,3.17
2023-05-22T15:42:31.942Z,3.35
2023-05-22T15:45:00.649Z,3.08
2023-05-22T15:47:27.545Z,3.10
2023-05-22T15:49:54.247Z,3.05
2023-05-22T15:52:23.364Z,3.28
2023-05-22T15:54:50.183Z,3.33
2023-05-22T15:57:17.010Z,3.05
2023-05-22T15:59:43.741Z,3.15
2023-05-22T16:02:10.408Z,2.70
2023-05-22T16:04:37.058Z,3.00
2023-05-22T16:07:03.835Z,3.80
2023-05-22T16:09:32.667Z,4.22
2023-05-22T16:12:02.551Z,4.20
2023-05-22T16:14:30.057Z,4.38
2023-05-22T16:16:56.885Z,4.30
2023-05-22T16:19:24.232Z,4.22
2023-05-22T16:21:50.960Z,4.63
2023-05-22T16:24:17.630Z,4.47
2023-05-22T16:26:44.325Z,5.10
2023-05-22T16:29:11.003Z,4.57
2023-05-22T16:31:37.777Z,4.85
2023-05-22T16:34:05.285Z,4.82
2023-05-22T16:36:32.561Z,5.05
2023-05-22T16:38:59.330Z,4.97
2023-05-22T16:41:26.903Z,4.90
2023-05-22T16:43:53.826Z,5.15
2023-05-22T16:46:20.711Z,5.28
2023-05-22T16:48:47.397Z,5.20
2023-05-22T16:51:14.177Z,5.75
2023-05-22T16:53:41.851Z,5.75
2023-05-22T16:56:08.639Z,5.65
2023-05-22T16:58:37.791Z,5.80
2023-05-22T17:01:06.443Z,5.82
2023-05-22T17:03:33.943Z,5.88
2023-05-22T17:06:03.069Z,4.90
2023-05-22T17:08:30.195Z,5.25
2023-05-22T17:10:56.952Z,5.30
2023-05-22T17:13:23.891Z,5.70
2023-05-22T17:15:51.322Z,5.55
2023-05-22T17:18:22.002Z,6.15
2023-05-22T17:20:53.974Z,5.47
2023-05-22T17:23:20.861Z,5.20
2023-05-22T17:25:47.774Z,5.70
2023-05-22T17:28:14.980Z,5.75
2023-05-22T17:30:43.296Z,5.45
2023-05-22T17:33:10.955Z,5.72
2023-05-22T17:35:37.924Z,5.50
2023-05-22T17:38:04.757Z,5.85
2023-05-22T17:43:02.509Z,5.78
2023-05-22T17:45:29.907Z,5.32
2023-05-22T17:47:56.644Z,6.20
2023-05-22T17:50:23.301Z,6.20
2023-05-22T17:52:49.971Z,5.38
2023-05-22T17:55:17.061Z,5.53
2023-05-22T17:57:43.716Z,5.90
2023-05-22T18:00:11.339Z,6.28
2023-05-22T18:02:40.908Z,6.60
2023-05-22T18:05:08.329Z,6.78
2023-05-22T18:07:35.013Z,7.15
2023-05-22T18:10:01.655Z,6.72
2023-05-22T18:12:31.977Z,7.72
2023-05-22T18:14:59.204Z,7.00
2023-05-22T18:17:26.517Z,7.03
2023-05-22T18:19:53.203Z,7.47
2023-05-22T18:22:21.775Z,8.02
2023-05-22T18:24:53.059Z,7.70
2023-05-22T18:27:20.664Z,8.20
2023-05-22T18:29:47.332Z,6.80
2023-05-22T18:32:14.009Z,7.78
2023-05-22T18:34:42.369Z,7.32
2023-05-22T18:37:09.841Z,6.93
2023-05-22T18:39:37.433Z,7.30
2023-05-22T18:42:04.461Z,7.07
2023-05-22T18:44:31.164Z,7.25
2023-05-22T18:46:58.040Z,7.10
2023-05-22T18:49:24.754Z,6.78
2023-05-22T18:51:52.581Z,7.22
2023-05-22T18:54:19.263Z,7.15
2023-05-22T18:56:45.994Z,7.10
2023-05-22T18:59:12.670Z,7.63
2023-05-22T19:01:39.496Z,6.30
2023-05-22T19:04:07.589Z,7.10
2023-05-22T19:06:34.959Z,7.55
2023-05-22T19:09:04.711Z,6.63
2023-05-22T19:11:31.885Z,7.15
2023-05-22T19:13:59.707Z,7.05
2023-05-22T19:16:26.456Z,6.50
2023-05-22T19:18:53.393Z,6.20
2023-05-22T19:21:20.275Z,6.20
2023-05-22T19:23:47.128Z,5.25
2023-05-22T19:26:14.148Z,5.65
2023-05-22T19:28:41.167Z,5.68
2023-05-22T19:31:07.840Z,5.50
2023-05-22T19:33:34.557Z,5.55
2023-05-22T19:36:06.499Z,5.85
2023-05-22T19:38:33.344Z,5.93
2023-05-22T19:41:00.035Z,6.00
2023-05-22T19:43:26.857Z,5.82
2023-05-22T19:45:54.156Z,6.50
2023-05-22T19:48:21.414Z,6.38
2023-05-22T19:50:48.075Z,6.78
2023-05-22T19:53:14.897Z,5.70
2023-05-22T19:55:41.619Z,6.88
2023-05-22T19:58:08.237Z,6.45
2023-05-22T20:00:35.744Z,6.82
2023-05-22T20:03:02.551Z,6.18
2023-05-22T20:05:32.162Z,5.90
2023-05-22T20:07:58.827Z,5.68
2023-05-22T20:10:26.016Z,7.03
2023-05-22T20:12:55.987Z,6.38
2023-05-22T20:15:24.147Z,6.70
2023-05-22T20:17:53.014Z,7.45
2023-05-22T20:20:20.480Z,7.20
2023-05-22T20:22:47.352Z,7.55
2023-05-22T20:25:14.162Z,7.15
2023-05-22T20:27:40.906Z,6.57
2023-05-22T20:30:11.260Z,7.07
2023-05-22T20:32:39.190Z,6.63
2023-05-22T20:35:07.204Z,7.10
2023-05-22T20:37:35.039Z,5.70
2023-05-22T20:40:09.340Z,6.50
2023-05-22T20:42:37.659Z,6.32
2023-05-22T20:45:05.704Z,6.13
2023-05-22T20:47:34.445Z,7.22
2023-05-22T20:50:01.128Z,6.82
2023-05-22T20:52:30.405Z,6.88
2023-05-22T20:54:57.921Z,6.57
2023-05-22T20:57:25.560Z,7.47
2023-05-22T20:59:55.978Z,6.85
2023-05-22T21:02:22.642Z,7.30
2023-05-22T21:04:49.356Z,7.57
2023-05-22T21:07:16.160Z,7.18
2023-05-22T21:09:42.843Z,7.07
2023-05-22T21:12:12.037Z,6.80
2023-05-22T21:14:38.702Z,8.18
2023-05-22T21:17:05.727Z,8.88
2023-05-22T21:19:32.504Z,8.30
2023-05-22T21:21:59.237Z,8.63
2023-05-22T21:24:25.907Z,8.38
2023-05-22T21:26:52.601Z,8.10
2023-05-22T21:29:19.286Z,8.65
2023-05-22T21:31:46.053Z,9.43
2023-05-22T21:34:12.792Z,8.77
2023-05-22T21:36:41.365Z,9.02
2023-05-22T21:39:08.041Z,8.25
2023-05-22T21:41:34.739Z,8.63
2023-05-22T21:44:01.522Z,8.57
2023-05-22T21:46:28.284Z,8.85
2023-05-22T21:48:55.205Z,8.43
2023-05-22T21:51:21.860Z,8.77
2023-05-22T21:53:48.488Z,8.35
2023-05-22T21:56:15.213Z,8.30
2023-05-22T21:58:42.149Z,8.25
2023-05-22T22:01:09.363Z,9.05
2023-05-22T22:03:36.264Z,8.27
2023-05-22T22:06:03.217Z,7.88
2023-05-22T22:08:30.005Z,7.88
2023-05-22T22:10:58.323Z,7.13
2023-05-22T22:13:25.012Z,7.45
2023-05-22T22:15:51.782Z,7.53
2023-05-22T22:18:18.944Z,7.13
2023-05-22T22:20:45.843Z,6.65
2023-05-22T22:23:12.650Z,6.72
2023-05-22T22:25:39.636Z,6.88
2023-05-22T22:28:07.408Z,7.40
2023-05-22T22:30:35.149Z,6.88
2023-05-22T22:33:02.162Z,6.18
2023-05-22T22:35:28.861Z,6.53
2023-05-22T22:37:55.703Z,6.55
2023-05-22T22:40:23.393Z,6.55
2023-05-22T22:42:51.648Z,6.75
2023-05-22T22:45:18.400Z,7.13
2023-05-22T22:47:45.914Z,6.53
2023-05-22T22:50:12.723Z,7.10
2023-05-22T22:52:45.376Z,7.18
2023-05-22T22:55:12.461Z,6.80
2023-05-22T22:57:39.455Z,6.68
2023-05-22T23:00:06.963Z,7.07
2023-05-22T23:02:33.792Z,7.30
2023-05-22T23:05:02.100Z,7.28
2023-05-22T23:07:28.814Z,7.35
2023-05-22T23:09:55.490Z,6.88
2023-05-22T23:12:22.210Z,7.28
2023-05-22T23:14:50.425Z,7.35
2023-05-22T23:17:17.162Z,7.40
2023-05-22T23:19:44.023Z,7.70
2023-05-22T23:22:10.926Z,7.90
2023-05-22T23:24:37.614Z,7.35
2023-05-22T23:27:04.416Z,8.20
2023-05-22T23:29:31.146Z,7.72
2023-05-22T23:31:58.073Z,7.70
2023-05-22T23:34:24.929Z,8.07
2023-05-22T23:36:51.708Z,7.90
2023-05-22T23:39:19.059Z,7.88
2023-05-22T23:41:45.789Z,8.27
2023-05-22T23:44:12.495Z,8.10
2023-05-22T23:46:39.805Z,7.47
2023-05-22T23:49:07.648Z,7.90
2023-05-22T23:51:34.407Z,8.00
2023-05-22T23:54:01.283Z,8.15
2023-05-22T23:56:28.150Z,7.97
2023-05-22T23:58:55.042Z,7.80
